Aeroboteco Virtual Airlines! Uma nuvem a frente.



 INFORMAÇÕES METEOROLÓGICAS
METAR FOR SCIC
ADDS - METARS form results

(0450 UTC 19 June 2019)
Data provider http://aviationweather.gov/metar/data/
 
METAR text: SCIC 190400Z AUTO 27003KT 230V290 9999 NCD 06/05 Q1022
Conditions at: SCIC (CURICO/GEN FREIR, CL) observed 0400 UTC 19 June 2019
Temperature: 6.0°C (43°F)
Dewpoint: 5.0°C (41°F) [RH = 93%]
Pressure (altimeter): 30.18 inches Hg (1022.0 mb)
Winds: from the W (270 degrees) at 3 MPH (3 knots; 1.5 m/s)
Visibility: 6 or more miles (10+ km)
Ceiling: at least 12,000 feet AGL
Clouds: sky clear below 12,000 feet AGL
Weather: no significant weather observed at this time

 MAPA DO AEROPORTO

 INFORMAÇÕES DA PISTA
Pista 1 Tamanho da pista 2625 ft Largura da pista 59 ft
Elevação da pista 0 ft Ranhura da pista 0 ft Proa da pista 0
Pista 19 Tamanho da pista 2625 ft Largura da pista 59 ft
Elevação da pista 0 ft Ranhura da pista 0 ft Proa da pista 0

 FREQUÊNCIAS DO AEROPORTO

 AUXÍLIOS DE NAVEGAÇÃO PRÓXIMOS AO AEROPORTO
Tipo VOR-DME Nome Curico Frequência 114700 KHZ
Tipo NDB Nome Curico Frequência 270 KHZ